createdAt,value
2016-03-01T00:01:03.794Z,48.49
2016-03-01T00:06:03.714Z,48.57
2016-03-01T00:11:03.632Z,48.66
2016-03-01T00:16:03.537Z,48.66
2016-03-01T00:21:03.488Z,48.66
2016-03-01T00:26:03.377Z,49.04
2016-03-01T00:31:03.299Z,49.14
2016-03-01T00:36:03.203Z,49.14
2016-03-01T00:41:03.138Z,49.23
2016-03-01T00:46:03.043Z,49.23
2016-03-01T00:51:02.946Z,49.49
2016-03-01T00:56:02.870Z,49.49
2016-03-01T01:01:02.790Z,49.4
2016-03-01T01:06:02.695Z,49.49
2016-03-01T01:11:02.614Z,49.4
2016-03-01T01:16:02.549Z,49.4
2016-03-01T01:21:02.437Z,49.69
2016-03-01T01:26:02.341Z,49.69
2016-03-01T01:31:02.276Z,49.69
2016-03-01T01:36:02.181Z,49.69
2016-03-01T01:41:02.085Z,49.57
2016-03-01T01:46:02.005Z,49.57
2016-03-01T01:51:01.908Z,49.66
2016-03-01T01:56:01.829Z,49.66
2016-03-01T02:01:01.748Z,49.57
2016-03-01T02:06:01.652Z,49.57
2016-03-01T02:11:01.556Z,50.33
2016-03-01T02:16:01.476Z,49.85
2016-03-01T02:21:01.388Z,49.85
2016-03-01T02:26:01.323Z,50.14
2016-03-01T02:31:01.228Z,49.95
2016-03-01T02:36:01.116Z,50.14
2016-03-01T02:41:01.035Z,49.95
2016-03-01T02:46:00.939Z,50.02
2016-03-01T02:51:00.844Z,50.04
2016-03-01T02:56:00.763Z,50.12
2016-03-01T03:01:00.668Z,50.49
2016-03-01T03:06:00.571Z,50.49
2016-03-01T03:11:00.491Z,50.4
2016-03-01T03:16:00.411Z,50.59
2016-03-01T03:21:00.299Z,50.4
2016-03-01T03:26:00.220Z,50.4
2016-03-01T03:31:00.138Z,50.49
2016-03-01T03:36:00.043Z,50.12
2016-03-01T03:40:59.947Z,50.59
2016-03-01T03:45:59.851Z,50.4
2016-03-01T03:50:59.756Z,50.69
2016-03-01T03:55:59.690Z,50.49
2016-03-01T04:00:59.594Z,50.95
2016-03-01T04:05:59.343Z,50.95
2016-03-01T04:10:59.398Z,50.38
2016-03-01T04:15:59.318Z,50.76
2016-03-01T04:20:59.222Z,50.67
2016-03-01T04:25:59.142Z,50.69
2016-03-01T04:30:59.045Z,50.76
2016-03-01T04:35:58.950Z,50.47
2016-03-01T04:40:58.854Z,50.47
2016-03-01T04:45:58.758Z,50.47
2016-03-01T04:50:58.692Z,50.76
2016-03-01T04:55:58.597Z,50.76
2016-03-01T05:00:58.501Z,51.04
2016-03-01T05:05:58.405Z,50.76
2016-03-01T05:10:58.324Z,50.57
2016-03-01T05:15:58.229Z,49.64
2016-03-01T05:20:58.141Z,49.47
2016-03-01T05:25:58.035Z,48.44
2016-03-01T05:30:57.955Z,47.89
2016-03-01T05:35:57.901Z,46.96
2016-03-01T05:40:57.835Z,46.31
2016-03-01T05:45:57.612Z,45.57
2016-03-01T05:50:57.719Z,44.9
2016-03-01T05:55:57.655Z,44.45
2016-03-01T06:00:57.590Z,44.06
2016-03-01T06:05:57.525Z,44.16
2016-03-01T06:10:57.475Z,44.62
2016-03-01T06:15:57.411Z,44.13
2016-03-01T06:20:57.363Z,44.52
2016-03-01T06:25:57.282Z,45
2016-03-01T06:30:57.218Z,45.19
2016-03-01T06:35:57.153Z,44.81
2016-03-01T06:40:57.088Z,45.19
2016-03-01T06:45:57.008Z,44.43
2016-03-01T06:50:56.958Z,44.62
2016-03-01T06:55:56.894Z,44.43
2016-03-01T07:00:56.813Z,44.43
2016-03-01T07:05:56.765Z,44.43
2016-03-01T07:10:56.700Z,44.16
2016-03-01T07:15:56.636Z,43.77
2016-03-01T07:20:56.571Z,44.16
2016-03-01T07:25:56.490Z,43.68
2016-03-01T07:30:56.441Z,43.68
2016-03-01T07:35:56.376Z,43.77
2016-03-01T07:40:56.312Z,43.68
2016-03-01T07:45:56.263Z,43.59
2016-03-01T07:50:56.166Z,43.77
2016-03-01T07:55:56.102Z,44.16
2016-03-01T08:00:56.037Z,43.68
2016-03-01T08:05:55.957Z,43.41
2016-03-01T08:10:55.893Z,43.51
2016-03-01T08:15:55.844Z,42.94
2016-03-01T08:20:55.779Z,43.23
2016-03-01T08:25:55.714Z,43.13
2016-03-01T08:30:55.649Z,43.23
2016-03-01T08:35:55.585Z,44.01
2016-03-01T08:40:55.520Z,45.14
2016-03-01T08:45:55.455Z,44.37
2016-03-01T08:50:55.406Z,44.11
2016-03-01T08:55:55.341Z,44.66
2016-03-01T09:00:55.277Z,44.27
2016-03-01T09:05:55.212Z,43.63
2016-03-01T09:10:55.162Z,43.15
2016-03-01T09:15:55.114Z,43.24
2016-03-01T09:20:55.034Z,43.05
2016-03-01T09:25:54.970Z,42.96
2016-03-01T09:30:54.921Z,42.94
2016-03-01T09:35:54.840Z,42.86
2016-03-01T09:40:54.776Z,42.19
2016-03-01T09:45:54.726Z,42
2016-03-01T09:50:54.661Z,42.29
2016-03-01T09:55:54.597Z,42.1
2016-03-01T10:00:54.532Z,42
2016-03-01T10:05:54.483Z,41.8
2016-03-01T10:10:54.418Z,42.1
2016-03-01T10:15:54.369Z,41.9
2016-03-01T10:20:54.289Z,42
2016-03-01T10:25:54.239Z,41.9
2016-03-01T10:30:54.191Z,41.42
2016-03-01T10:35:54.110Z,41.33
2016-03-01T10:40:54.077Z,41.33
2016-03-01T10:45:54.060Z,41.44
2016-03-01T10:50:53.948Z,41.44
2016-03-01T10:55:53.883Z,42.02
2016-03-01T11:00:53.833Z,42.1
2016-03-01T11:05:53.785Z,42.19
2016-03-01T11:10:53.705Z,42.29
2016-03-01T11:15:53.624Z,42.19
2016-03-01T11:20:53.576Z,42.67
2016-03-01T11:25:53.494Z,42.77
2016-03-01T11:30:53.430Z,43.03
2016-03-01T11:35:53.365Z,43.39
2016-03-01T11:40:53.301Z,43.3
2016-03-01T11:45:53.237Z,43.49
2016-03-01T11:50:53.172Z,43.97
2016-03-01T11:55:53.092Z,43.87
2016-03-01T12:00:52.869Z,44.16
2016-03-01T12:05:52.946Z,44.43
2016-03-01T12:10:52.897Z,44.43
2016-03-01T12:15:52.818Z,44.52
2016-03-01T12:20:52.737Z,44.62
2016-03-01T12:25:52.673Z,44.62
2016-03-01T12:30:52.592Z,44.88
2016-03-01T12:35:52.528Z,45.17
2016-03-01T12:40:52.448Z,45.17
2016-03-01T12:45:52.383Z,45.55
2016-03-01T12:50:52.302Z,45.55
2016-03-01T12:55:52.223Z,45.65
2016-03-01T13:00:52.157Z,46.22
2016-03-01T13:05:52.093Z,46.31
2016-03-01T13:10:52.013Z,46.41
2016-03-01T13:15:51.948Z,46.51
2016-03-01T13:20:51.869Z,47.18
2016-03-01T13:25:51.804Z,46.51
2016-03-01T13:30:51.738Z,46.98
2016-03-01T13:35:51.706Z,46.89
2016-03-01T13:40:51.594Z,47.08
2016-03-01T13:45:51.518Z,46.8
2016-03-01T13:50:51.454Z,46.7
2016-03-01T13:55:51.388Z,47.18
2016-03-01T14:00:51.309Z,47.3
2016-03-01T14:05:51.244Z,47.39
2016-03-01T14:10:51.178Z,47.68
2016-03-01T14:15:51.099Z,48.64
2016-03-01T14:43:35.526Z,61.11
2016-03-01T14:48:35.365Z,64.81
2016-03-01T14:53:35.253Z,66.32
2016-03-01T14:58:35.173Z,68.02
2016-03-01T15:03:35.061Z,68.5
2016-03-01T15:08:34.950Z,69.82
2016-03-01T15:13:34.854Z,71.06
2016-03-01T15:18:34.743Z,72.38
2016-03-01T15:23:34.646Z,73.33
2016-03-01T15:28:34.550Z,73.52
2016-03-01T15:33:35.298Z,74.85
2016-03-01T15:43:35.451Z,76.46
2016-03-01T15:48:34.574Z,77.5
2016-03-01T15:53:38.119Z,78.35
2016-03-01T15:58:34.179Z,79.39
2016-03-01T16:03:33.818Z,79.96
2016-03-01T16:08:33.722Z,80.34
2016-03-01T16:13:33.611Z,80.82
2016-03-01T16:18:33.515Z,81.2
2016-03-01T16:23:33.419Z,82.05
2016-03-01T16:28:33.338Z,82.62
2016-03-01T16:33:33.196Z,83
2016-03-01T16:38:33.115Z,83.28
2016-03-01T16:43:33.004Z,83.75
2016-03-01T16:48:32.890Z,84.61
2016-03-01T16:53:32.810Z,84.42
2016-03-01T16:58:32.730Z,85.55
2016-03-01T17:03:32.587Z,85.65
2016-03-01T17:08:32.476Z,86.12
2016-03-01T17:13:32.396Z,86.6
2016-03-01T17:18:32.330Z,86.22
2016-03-01T17:23:32.438Z,87.16
2016-03-01T17:28:32.123Z,87.64
2016-03-01T17:33:31.965Z,87.97
2016-03-01T17:38:31.870Z,87.83
2016-03-01T17:43:31.758Z,88.4
2016-03-01T17:48:31.677Z,88.35
2016-03-01T17:53:31.565Z,88.82
2016-03-01T17:58:31.313Z,88.54
2016-03-01T18:03:31.358Z,89.11
2016-03-01T18:08:31.247Z,89.01
2016-03-01T18:13:31.183Z,89.2
2016-03-01T18:18:31.055Z,89.39
2016-03-01T18:23:30.960Z,89.48
2016-03-01T18:28:30.862Z,89.2
2016-03-01T18:33:30.767Z,89.29
2016-03-01T18:38:30.671Z,89.58
2016-03-01T18:43:30.575Z,89.58
2016-03-01T18:48:30.448Z,90
2016-03-01T18:53:30.368Z,89.81
2016-03-01T18:58:30.271Z,90
2016-03-01T19:03:30.192Z,90.38
2016-03-01T19:08:30.064Z,90.38
2016-03-01T19:13:29.969Z,90.1
2016-03-01T19:18:29.889Z,90.76
2016-03-01T19:23:29.777Z,90.67
2016-03-01T19:28:29.680Z,90.38
2016-03-01T19:33:29.429Z,90.57
2016-03-01T19:38:29.489Z,90.48
2016-03-01T19:43:29.393Z,90.67
2016-03-01T19:48:29.298Z,90.95
2016-03-01T19:53:29.201Z,90.48
2016-03-01T19:58:29.105Z,90.29
2016-03-01T20:03:29.024Z,90.71
2016-03-01T20:08:28.918Z,90.9
2016-03-01T20:13:28.806Z,91.19
2016-03-01T20:18:28.742Z,91.19
2016-03-01T20:23:28.630Z,91.09
2016-03-01T20:28:28.535Z,91.09
2016-03-01T20:33:28.438Z,90.9
2016-03-01T20:38:28.401Z,91.28
2016-03-01T20:43:28.251Z,91.14
2016-03-01T20:48:28.141Z,91.42
2016-03-01T20:53:28.050Z,91.61
2016-03-01T20:58:27.970Z,91.52
2016-03-01T21:03:27.858Z,91.04
2016-03-01T21:08:27.756Z,91.8
2016-03-01T21:13:27.676Z,91.61
2016-03-01T21:18:27.580Z,91.52
2016-03-01T21:23:27.485Z,91.61
2016-03-01T21:28:27.404Z,91.61
2016-03-01T21:33:27.308Z,91.94
2016-03-01T21:38:27.213Z,91.75
2016-03-01T21:43:27.133Z,91.66
2016-03-01T21:48:27.037Z,92.13
2016-03-01T21:53:26.956Z,91.85
2016-03-01T21:58:26.861Z,92.23
2016-03-01T22:03:26.764Z,92.32
2016-03-01T22:08:26.683Z,92.9
2016-03-01T22:13:26.602Z,92.61
2016-03-01T22:18:26.490Z,92.13
2016-03-01T22:23:26.410Z,92.8
2016-03-01T22:28:26.315Z,92.04
2016-03-01T22:33:26.234Z,92.61
2016-03-01T22:38:26.154Z,93.27
2016-03-01T22:43:26.059Z,92.66
2016-03-01T22:48:25.979Z,92.85
2016-03-01T22:53:25.882Z,92.99
2016-03-01T22:58:25.786Z,93.04
2016-03-01T23:03:25.707Z,92.75
2016-03-01T23:08:25.610Z,93.51
2016-03-01T23:13:25.531Z,92.85
2016-03-01T23:18:25.465Z,92.66
2016-03-01T23:23:25.353Z,93.51
2016-03-01T23:28:25.274Z,93.32
2016-03-01T23:33:25.154Z,92.85
2016-03-01T23:38:25.034Z,93.51
2016-03-01T23:43:24.939Z,93.51
2016-03-01T23:48:24.837Z,93.32
2016-03-01T23:53:24.757Z,93.04
2016-03-01T23:58:24.660Z,93.32
